Terminal Aerodrome Forecast
Issued by NWS

Home | Current Version | Previous Version | Text Only | Print | Product List | Glossary On
Versions: 1 2 3 4 5 6 7 8 9 10 11 12 13
719
FTUS43 KGRR 262340
TAFBTL
TAF
KBTL 262340Z 2700/2724 VRB04KT P6SM FEW250
     FM270900 VRB03KT 5SM BR SKC
     FM271400 27008KT P6SM SCT250=

USA.gov is the U.S. government's official web portal to all federal, state and local government web resources and services.